sensor_id;sensor_type;location;lat;lon;timestamp;pressure;altitude;pressure_sealevel;temperature;humidity
23679;BME280;12016;51.668;6.874;2023-02-26T00:00:08;101476.13;;;3.19;62.71
23679;BME280;12016;51.668;6.874;2023-02-26T00:06:14;101358.59;;;2.50;62.63
23679;BME280;12016;51.668;6.874;2023-02-26T00:12:16;101298.53;;;2.16;62.81
23679;BME280;12016;51.668;6.874;2023-02-26T00:18:18;100956.34;;;-0.83;62.65
23679;BME280;12016;51.668;6.874;2023-02-26T00:24:20;100970.03;;;0.06;63.64
23679;BME280;12016;51.668;6.874;2023-02-26T00:30:22;101527.97;;;3.34;64.34
23679;BME280;12016;51.668;6.874;2023-02-26T00:36:49;101500.22;;;3.30;63.74
23679;BME280;12016;51.668;6.874;2023-02-26T00:42:46;101525.16;;;3.23;63.89
23679;BME280;12016;51.668;6.874;2023-02-26T00:48:58;101516.53;;;3.16;64.62
23679;BME280;12016;51.668;6.874;2023-02-26T00:55:01;101529.13;;;3.21;63.78
23679;BME280;12016;51.668;6.874;2023-02-26T01:01:03;101534.69;;;3.19;63.86
23679;BME280;12016;51.668;6.874;2023-02-26T01:07:06;101540.72;;;3.15;64.08
23679;BME280;12016;51.668;6.874;2023-02-26T01:13:09;101539.91;;;3.14;64.90
23679;BME280;12016;51.668;6.874;2023-02-26T01:19:19;101369.19;;;1.27;64.60
23679;BME280;12016;51.668;6.874;2023-02-26T01:25:34;101202.81;;;0.30;64.76
23679;BME280;12016;51.668;6.874;2023-02-26T01:31:59;101551.78;;;2.90;65.77
23679;BME280;12016;51.668;6.874;2023-02-26T01:38:27;101553.00;;;2.82;65.23
23679;BME280;12016;51.668;6.874;2023-02-26T01:44:41;101548.28;;;2.73;65.63
23679;BME280;12016;51.668;6.874;2023-02-26T01:50:47;101561.50;;;2.68;65.60
23679;BME280;12016;51.668;6.874;2023-02-26T01:56:55;101575.28;;;2.65;64.80
23679;BME280;12016;51.668;6.874;2023-02-26T02:02:58;101486.78;;;2.07;65.40
23679;BME280;12016;51.668;6.874;2023-02-26T02:09:04;101581.00;;;2.57;65.55
23679;BME280;12016;51.668;6.874;2023-02-26T02:15:32;101585.88;;;2.48;65.79
23679;BME280;12016;51.668;6.874;2023-02-26T02:28:30;101599.31;;;2.41;65.19
23679;BME280;12016;51.668;6.874;2023-02-26T02:34:45;101615.41;;;2.35;65.87
23679;BME280;12016;51.668;6.874;2023-02-26T02:40:53;101570.66;;;2.03;65.36
23679;BME280;12016;51.668;6.874;2023-02-26T02:46:58;101633.56;;;2.26;66.21
23679;BME280;12016;51.668;6.874;2023-02-26T02:53:16;101570.97;;;1.78;66.02
23679;BME280;12016;51.668;6.874;2023-02-26T02:59:31;101557.13;;;1.53;66.15
23679;BME280;12016;51.668;6.874;2023-02-26T03:05:33;101536.38;;;1.38;66.06
23679;BME280;12016;51.668;6.874;2023-02-26T03:11:36;101645.53;;;2.00;66.24
23679;BME280;12016;51.668;6.874;2023-02-26T03:17:49;101400.63;;;0.37;66.20
23679;BME280;12016;51.668;6.874;2023-02-26T03:24:10;101655.59;;;1.87;66.62
23679;BME280;12016;51.668;6.874;2023-02-26T03:30:19;101666.66;;;1.84;66.62
23679;BME280;12016;51.668;6.874;2023-02-26T03:37:10;101678.81;;;1.79;66.69
23679;BME280;12016;51.668;6.874;2023-02-26T03:43:19;101689.53;;;1.73;66.77
23679;BME280;12016;51.668;6.874;2023-02-26T03:49:28;101697.72;;;1.71;65.64
23679;BME280;12016;51.668;6.874;2023-02-26T03:55:48;101249.34;;;-1.22;66.42
23679;BME280;12016;51.668;6.874;2023-02-26T04:02:16;101704.41;;;1.62;65.53
23679;BME280;12016;51.668;6.874;2023-02-26T04:08:22;101592.47;;;0.77;65.40
23679;BME280;12016;51.668;6.874;2023-02-26T04:14:24;101436.47;;;-0.21;65.90
23679;BME280;12016;51.668;6.874;2023-02-26T04:20:27;101747.63;;;1.28;65.46
23679;BME280;12016;51.668;6.874;2023-02-26T04:26:29;101744.44;;;1.49;66.14
23679;BME280;12016;51.668;6.874;2023-02-26T04:32:32;101749.72;;;1.37;66.20
23679;BME280;12016;51.668;6.874;2023-02-26T04:38:34;101750.31;;;1.39;65.52
23679;BME280;12016;51.668;6.874;2023-02-26T04:44:38;101763.38;;;1.41;66.06
23679;BME280;12016;51.668;6.874;2023-02-26T04:50:39;101765.44;;;1.39;65.29
23679;BME280;12016;51.668;6.874;2023-02-26T04:56:41;101769.56;;;1.35;65.07
23679;BME280;12016;51.668;6.874;2023-02-26T05:02:43;101775.31;;;1.32;65.36
23679;BME280;12016;51.668;6.874;2023-02-26T05:08:45;101794.38;;;1.29;65.51
23679;BME280;12016;51.668;6.874;2023-02-26T05:14:47;101796.88;;;1.24;65.57
23679;BME280;12016;51.668;6.874;2023-02-26T05:20:52;101800.72;;;1.28;64.76
23679;BME280;12016;51.668;6.874;2023-02-26T05:26:54;101805.28;;;1.21;65.34
23679;BME280;12016;51.668;6.874;2023-02-26T05:32:55;101816.47;;;1.23;65.39
23679;BME280;12016;51.668;6.874;2023-02-26T05:38:57;101827.75;;;1.18;65.04
23679;BME280;12016;51.668;6.874;2023-02-26T05:44:59;101834.78;;;1.13;64.88
23679;BME280;12016;51.668;6.874;2023-02-26T05:51:00;101844.22;;;1.08;64.76
23679;BME280;12016;51.668;6.874;2023-02-26T05:57:03;101858.28;;;1.09;65.09
23679;BME280;12016;51.668;6.874;2023-02-26T06:03:09;101854.00;;;1.08;64.95
23679;BME280;12016;51.668;6.874;2023-02-26T06:09:11;101870.44;;;0.98;64.69
23679;BME280;12016;51.668;6.874;2023-02-26T06:15:12;101879.66;;;0.96;64.67
23679;BME280;12016;51.668;6.874;2023-02-26T06:21:14;101887.41;;;0.97;65.21
23679;BME280;12016;51.668;6.874;2023-02-26T06:27:16;101895.78;;;0.94;64.87
23679;BME280;12016;51.668;6.874;2023-02-26T06:33:18;101906.56;;;0.99;65.37
23679;BME280;12016;51.668;6.874;2023-02-26T06:39:22;101915.75;;;0.97;65.61
23679;BME280;12016;51.668;6.874;2023-02-26T06:45:23;101926.22;;;0.92;64.99
23679;BME280;12016;51.668;6.874;2023-02-26T06:51:25;101941.09;;;0.93;65.46
23679;BME280;12016;51.668;6.874;2023-02-26T06:57:27;101954.75;;;0.96;65.26
23679;BME280;12016;51.668;6.874;2023-02-26T07:03:29;101966.69;;;1.05;64.61
23679;BME280;12016;51.668;6.874;2023-02-26T07:09:31;101976.59;;;1.17;65.03
23679;BME280;12016;51.668;6.874;2023-02-26T07:15:33;101979.97;;;1.24;64.29
23679;BME280;12016;51.668;6.874;2023-02-26T07:21:35;101999.38;;;1.24;65.21
23679;BME280;12016;51.668;6.874;2023-02-26T07:27:36;102007.94;;;1.26;65.06
23679;BME280;12016;51.668;6.874;2023-02-26T07:33:38;102011.09;;;1.35;64.73
23679;BME280;12016;51.668;6.874;2023-02-26T07:39:40;102019.88;;;1.35;64.57
23679;BME280;12016;51.668;6.874;2023-02-26T07:45:42;102027.13;;;1.47;64.20
23679;BME280;12016;51.668;6.874;2023-02-26T07:51:44;102039.34;;;1.48;64.38
23679;BME280;12016;51.668;6.874;2023-02-26T07:57:47;102039.31;;;1.54;64.89
23679;BME280;12016;51.668;6.874;2023-02-26T08:03:48;102044.16;;;1.57;64.26
23679;BME280;12016;51.668;6.874;2023-02-26T08:09:50;102046.88;;;1.69;63.95
23679;BME280;12016;51.668;6.874;2023-02-26T08:15:51;102064.97;;;1.78;64.83
23679;BME280;12016;51.668;6.874;2023-02-26T08:21:53;102068.31;;;1.92;63.95
23679;BME280;12016;51.668;6.874;2023-02-26T08:27:55;102069.53;;;2.08;64.54
23679;BME280;12016;51.668;6.874;2023-02-26T08:33:59;102084.16;;;2.17;64.21
23679;BME280;12016;51.668;6.874;2023-02-26T08:40:01;102086.81;;;2.17;62.90
23679;BME280;12016;51.668;6.874;2023-02-26T08:46:03;102095.72;;;2.23;62.54
23679;BME280;12016;51.668;6.874;2023-02-26T08:52:04;102099.34;;;2.28;62.04
23679;BME280;12016;51.668;6.874;2023-02-26T08:58:06;102104.56;;;2.35;60.97
23679;BME280;12016;51.668;6.874;2023-02-26T09:04:08;102122.94;;;2.55;60.51
23679;BME280;12016;51.668;6.874;2023-02-26T09:10:10;102134.28;;;2.62;60.90
23679;BME280;12016;51.668;6.874;2023-02-26T09:16:12;102141.38;;;2.68;58.96
23679;BME280;12016;51.668;6.874;2023-02-26T09:22:14;102151.41;;;2.84;59.87
23679;BME280;12016;51.668;6.874;2023-02-26T09:28:15;102156.41;;;3.04;58.56
23679;BME280;12016;51.668;6.874;2023-02-26T09:34:17;102160.16;;;3.26;59.19
23679;BME280;12016;51.668;6.874;2023-02-26T09:41:05;102165.19;;;3.46;56.32
23679;BME280;12016;51.668;6.874;2023-02-26T09:46:43;102172.16;;;3.70;54.94
23679;BME280;12016;51.668;6.874;2023-02-26T09:58:58;102183.38;;;4.07;54.12
23679;BME280;12016;51.668;6.874;2023-02-26T10:05:06;102191.91;;;4.44;52.89
23679;BME280;12016;51.668;6.874;2023-02-26T10:11:35;102201.25;;;4.58;52.67
23679;BME280;12016;51.668;6.874;2023-02-26T10:17:38;102202.31;;;4.86;51.70
23679;BME280;12016;51.668;6.874;2023-02-26T10:23:45;102244.69;;;5.39;50.93
23679;BME280;12016;51.668;6.874;2023-02-26T10:29:52;102207.34;;;13.84;35.60
23679;BME280;12016;51.668;6.874;2023-02-26T10:36:01;102202.84;;;19.29;26.37
23679;BME280;12016;51.668;6.874;2023-02-26T10:42:10;102208.66;;;22.25;22.12
23679;BME280;12016;51.668;6.874;2023-02-26T10:54:35;102209.91;;;20.57;25.02
23679;BME280;12016;51.668;6.874;2023-02-26T11:00:40;102216.88;;;18.86;30.04
23679;BME280;12016;51.668;6.874;2023-02-26T11:07:02;102044.28;;;22.39;25.70
23679;BME280;12016;51.668;6.874;2023-02-26T11:13:06;102210.81;;;23.25;23.91
23679;BME280;12016;51.668;6.874;2023-02-26T11:19:11;102072.56;;;21.73;24.31
23679;BME280;12016;51.668;6.874;2023-02-26T11:25:17;102213.56;;;22.86;24.60
23679;BME280;12016;51.668;6.874;2023-02-26T11:31:25;102177.66;;;24.84;22.04
23679;BME280;12016;51.668;6.874;2023-02-26T11:37:30;102176.47;;;19.78;25.31
23679;BME280;12016;51.668;6.874;2023-02-26T11:43:36;102216.16;;;21.22;25.10
23679;BME280;12016;51.668;6.874;2023-02-26T11:49:43;102259.19;;;22.56;23.38
23679;BME280;12016;51.668;6.874;2023-02-26T11:55:51;101920.41;;;24.29;20.81
23679;BME280;12016;51.668;6.874;2023-02-26T12:01:53;102202.44;;;26.40;19.84
23679;BME280;12016;51.668;6.874;2023-02-26T12:07:55;101916.03;;;22.82;20.68
23679;BME280;12016;51.668;6.874;2023-02-26T12:20:25;102181.03;;;31.83;13.31
23679;BME280;12016;51.668;6.874;2023-02-26T12:26:46;102118.56;;;32.24;12.67
23679;BME280;12016;51.668;6.874;2023-02-26T12:33:54;102183.94;;;33.18;12.36
23679;BME280;12016;51.668;6.874;2023-02-26T12:47:12;102176.69;;;33.05;11.69
23679;BME280;12016;51.668;6.874;2023-02-26T12:59:15;102181.81;;;31.03;12.81
23679;BME280;12016;51.668;6.874;2023-02-26T13:18:41;102201.00;;;24.11;17.03
23679;BME280;12016;51.668;6.874;2023-02-26T13:25:17;102152.66;;;23.88;16.37
23679;BME280;12016;51.668;6.874;2023-02-26T13:37:39;102197.53;;;22.18;18.33
23679;BME280;12016;51.668;6.874;2023-02-26T13:50:13;102183.34;;;21.85;19.02
23679;BME280;12016;51.668;6.874;2023-02-26T14:02:42;102182.56;;;19.51;20.60
23679;BME280;12016;51.668;6.874;2023-02-26T14:08:47;102180.38;;;19.44;21.25
23679;BME280;12016;51.668;6.874;2023-02-26T14:27:33;102181.16;;;19.90;20.79
23679;BME280;12016;51.668;6.874;2023-02-26T14:34:19;102176.47;;;20.51;20.16
23679;BME280;12016;51.668;6.874;2023-02-26T14:40:11;102199.84;;;19.88;23.02
23679;BME280;12016;51.668;6.874;2023-02-26T14:46:15;102128.47;;;18.78;23.55
23679;BME280;12016;51.668;6.874;2023-02-26T14:58:59;101632.53;;;17.36;22.51
23679;BME280;12016;51.668;6.874;2023-02-26T15:18:08;102190.81;;;21.13;19.90
23679;BME280;12016;51.668;6.874;2023-02-26T15:24:15;102098.41;;;19.44;22.81
23679;BME280;12016;51.668;6.874;2023-02-26T15:30:18;102083.00;;;17.82;23.38
23679;BME280;12016;51.668;6.874;2023-02-26T15:36:20;102208.13;;;17.49;25.07
23679;BME280;12016;51.668;6.874;2023-02-26T15:42:29;102043.25;;;15.22;25.96
23679;BME280;12016;51.668;6.874;2023-02-26T15:48:36;102214.47;;;16.01;26.47
23679;BME280;12016;51.668;6.874;2023-02-26T15:54:42;102065.72;;;13.98;27.91
23679;BME280;12016;51.668;6.874;2023-02-26T16:00:51;102228.25;;;14.11;28.38
23679;BME280;12016;51.668;6.874;2023-02-26T16:06:56;102165.81;;;13.10;28.09
23679;BME280;12016;51.668;6.874;2023-02-26T16:12:59;102240.81;;;12.62;28.66
23679;BME280;12016;51.668;6.874;2023-02-26T16:19:01;102245.41;;;12.43;30.07
23679;BME280;12016;51.668;6.874;2023-02-26T16:25:07;102238.03;;;11.96;30.76
23679;BME280;12016;51.668;6.874;2023-02-26T16:31:15;102246.47;;;11.55;31.61
23679;BME280;12016;51.668;6.874;2023-02-26T16:49:25;102274.88;;;10.03;34.19
23679;BME280;12016;51.668;6.874;2023-02-26T16:55:28;102286.72;;;9.77;34.84
23679;BME280;12016;51.668;6.874;2023-02-26T17:01:32;102288.84;;;9.50;35.65
23679;BME280;12016;51.668;6.874;2023-02-26T17:07:36;102290.72;;;9.29;36.42
23679;BME280;12016;51.668;6.874;2023-02-26T17:13:56;102294.38;;;8.92;36.29
23679;BME280;12016;51.668;6.874;2023-02-26T17:19:58;102303.13;;;8.68;38.25
23679;BME280;12016;51.668;6.874;2023-02-26T17:26:00;102298.44;;;8.43;38.88
23679;BME280;12016;51.668;6.874;2023-02-26T17:32:03;102316.53;;;8.25;39.47
23679;BME280;12016;51.668;6.874;2023-02-26T17:38:06;102314.59;;;8.16;39.88
23679;BME280;12016;51.668;6.874;2023-02-26T17:44:07;102317.66;;;7.98;40.39
23679;BME280;12016;51.668;6.874;2023-02-26T17:56:35;102331.16;;;7.49;41.52
23679;BME280;12016;51.668;6.874;2023-02-26T18:02:39;102345.53;;;7.38;42.18
23679;BME280;12016;51.668;6.874;2023-02-26T18:08:40;102345.09;;;7.24;42.13
23679;BME280;12016;51.668;6.874;2023-02-26T18:14:42;102345.16;;;7.07;42.01
23679;BME280;12016;51.668;6.874;2023-02-26T18:20:44;102344.22;;;6.97;43.05
23679;BME280;12016;51.668;6.874;2023-02-26T18:26:46;102346.78;;;6.87;42.80
23679;BME280;12016;51.668;6.874;2023-02-26T18:32:48;102360.94;;;6.65;43.94
23679;BME280;12016;51.668;6.874;2023-02-26T18:38:49;102363.22;;;6.57;44.30
23679;BME280;12016;51.668;6.874;2023-02-26T18:44:51;102359.97;;;6.55;44.26
23679;BME280;12016;51.668;6.874;2023-02-26T18:50:53;102368.69;;;6.45;45.47
23679;BME280;12016;51.668;6.874;2023-02-26T18:57:00;102365.34;;;6.38;45.52
23679;BME280;12016;51.668;6.874;2023-02-26T19:03:02;102373.38;;;6.38;45.73
23679;BME280;12016;51.668;6.874;2023-02-26T19:09:04;102390.81;;;6.24;47.50
23679;BME280;12016;51.668;6.874;2023-02-26T19:15:07;102383.53;;;6.19;47.39
23679;BME280;12016;51.668;6.874;2023-02-26T19:21:09;102388.19;;;6.12;48.84
23679;BME280;12016;51.668;6.874;2023-02-26T19:27:12;102390.66;;;5.97;49.29
23679;BME280;12016;51.668;6.874;2023-02-26T19:33:14;102393.91;;;5.87;50.42
23679;BME280;12016;51.668;6.874;2023-02-26T19:39:20;102398.13;;;5.83;49.64
23679;BME280;12016;51.668;6.874;2023-02-26T19:45:22;102399.53;;;5.74;49.96
23679;BME280;12016;51.668;6.874;2023-02-26T19:51:24;102412.44;;;5.77;49.13
23679;BME280;12016;51.668;6.874;2023-02-26T19:57:26;102411.78;;;5.70;48.99
23679;BME280;12016;51.668;6.874;2023-02-26T20:03:29;102417.34;;;5.68;49.31
23679;BME280;12016;51.668;6.874;2023-02-26T20:09:31;102425.16;;;5.58;49.18
23679;BME280;12016;51.668;6.874;2023-02-26T20:15:33;102429.25;;;5.49;48.68
23679;BME280;12016;51.668;6.874;2023-02-26T20:21:35;102434.75;;;5.43;48.83
23679;BME280;12016;51.668;6.874;2023-02-26T20:27:37;102439.25;;;5.54;49.05
23679;BME280;12016;51.668;6.874;2023-02-26T20:33:40;102445.19;;;5.56;49.78
23679;BME280;12016;51.668;6.874;2023-02-26T20:39:41;102457.22;;;5.58;50.04
23679;BME280;12016;51.668;6.874;2023-02-26T20:45:43;102463.06;;;5.55;49.54
23679;BME280;12016;51.668;6.874;2023-02-26T20:51:45;102475.06;;;5.41;49.91
23679;BME280;12016;51.668;6.874;2023-02-26T20:57:46;102473.00;;;5.31;50.56
23679;BME280;12016;51.668;6.874;2023-02-26T21:03:48;102475.56;;;5.26;50.90
23679;BME280;12016;51.668;6.874;2023-02-26T21:09:50;102473.81;;;5.20;50.72
23679;BME280;12016;51.668;6.874;2023-02-26T21:15:53;102479.97;;;5.09;51.35
23679;BME280;12016;51.668;6.874;2023-02-26T21:21:54;102481.59;;;4.98;51.63
23679;BME280;12016;51.668;6.874;2023-02-26T21:27:56;102492.88;;;4.89;51.37
23679;BME280;12016;51.668;6.874;2023-02-26T21:33:58;102499.47;;;4.75;51.63
23679;BME280;12016;51.668;6.874;2023-02-26T21:40:09;102504.06;;;4.67;52.17
23679;BME280;12016;51.668;6.874;2023-02-26T21:46:11;102291.66;;;3.25;53.05
23679;BME280;12016;51.668;6.874;2023-02-26T21:52:13;102501.38;;;4.44;53.44
23679;BME280;12016;51.668;6.874;2023-02-26T21:58:14;102499.81;;;4.25;54.21
23679;BME280;12016;51.668;6.874;2023-02-26T22:04:17;102503.38;;;4.19;54.06
23679;BME280;12016;51.668;6.874;2023-02-26T22:10:19;102507.47;;;4.03;55.33
23679;BME280;12016;51.668;6.874;2023-02-26T22:16:21;102509.66;;;3.94;55.26
23679;BME280;12016;51.668;6.874;2023-02-26T22:22:22;102504.41;;;3.88;55.28
23679;BME280;12016;51.668;6.874;2023-02-26T22:28:24;102503.22;;;3.84;55.23
23679;BME280;12016;51.668;6.874;2023-02-26T22:34:26;102510.25;;;3.78;55.36
23679;BME280;12016;51.668;6.874;2023-02-26T22:40:29;102505.84;;;3.72;56.05
23679;BME280;12016;51.668;6.874;2023-02-26T22:46:31;102512.94;;;3.60;56.27
23679;BME280;12016;51.668;6.874;2023-02-26T22:52:33;102511.84;;;3.49;56.99
23679;BME280;12016;51.668;6.874;2023-02-26T22:58:34;102513.53;;;3.44;56.84
23679;BME280;12016;51.668;6.874;2023-02-26T23:04:36;102522.63;;;3.36;57.38
23679;BME280;12016;51.668;6.874;2023-02-26T23:10:38;102513.66;;;3.31;57.67
23679;BME280;12016;51.668;6.874;2023-02-26T23:16:39;102534.78;;;3.26;57.00
23679;BME280;12016;51.668;6.874;2023-02-26T23:22:41;102542.25;;;3.17;57.58
23679;BME280;12016;51.668;6.874;2023-02-26T23:28:44;102544.09;;;3.16;57.58
23679;BME280;12016;51.668;6.874;2023-02-26T23:34:45;102542.75;;;3.07;58.66
23679;BME280;12016;51.668;6.874;2023-02-26T23:40:47;102555.97;;;2.96;57.87
23679;BME280;12016;51.668;6.874;2023-02-26T23:46:49;102552.53;;;2.88;57.90
23679;BME280;12016;51.668;6.874;2023-02-26T23:52:51;102564.88;;;2.83;58.02
23679;BME280;12016;51.668;6.874;2023-02-26T23:58:53;102577.31;;;2.58;58.72
